createdAt,value
2023-01-15T00:01:01.748Z,99666.16
2023-01-15T00:03:29.189Z,99664.16
2023-01-15T00:06:08.526Z,99653.81
2023-01-15T00:08:35.696Z,99652.63
2023-01-15T00:11:03.654Z,99651.88
2023-01-15T00:13:30.449Z,99647.16
2023-01-15T00:16:03.013Z,99648.75
2023-01-15T00:18:29.770Z,99657.84
2023-01-15T00:21:03.739Z,99653.41
2023-01-15T00:23:31.102Z,99657.72
2023-01-15T00:25:57.973Z,99650.16
2023-01-15T00:28:24.688Z,99648.69
2023-01-15T00:30:52.099Z,99649.31
2023-01-15T00:33:19.231Z,99653.41
2023-01-15T00:35:52.066Z,99649.78
2023-01-15T00:38:20.847Z,99652.44
2023-01-15T00:40:47.753Z,99650.59
2023-01-15T00:43:16.118Z,99637.16
2023-01-15T00:45:45.026Z,99641.50
2023-01-15T00:48:12.085Z,99647.44
2023-01-15T00:50:38.845Z,99657.84
2023-01-15T00:53:05.568Z,99654.69
2023-01-15T00:55:33.942Z,99649.13
2023-01-15T00:58:12.967Z,99648.78
2023-01-15T01:00:40.032Z,99644.53
2023-01-15T01:03:06.967Z,99651.84
2023-01-15T01:05:34.800Z,99652.16
2023-01-15T01:08:01.659Z,99652.38
2023-01-15T01:10:28.717Z,99661.53
2023-01-15T01:12:57.520Z,99662.38
2023-01-15T01:15:26.836Z,99652.66
2023-01-15T01:17:53.634Z,99646.53
2023-01-15T01:20:20.702Z,99657.88
2023-01-15T01:22:50.410Z,99661.28
2023-01-15T01:25:17.563Z,99650.50
2023-01-15T01:27:44.970Z,99645.22
2023-01-15T01:30:14.328Z,99656.31
2023-01-15T01:32:44.452Z,99652.44
2023-01-15T01:35:11.800Z,99665.53
2023-01-15T01:37:40.514Z,99676.31
2023-01-15T01:40:08.710Z,99680.63
2023-01-15T01:42:41.794Z,99673.88
2023-01-15T01:45:20.337Z,99674.59
2023-01-15T01:47:47.787Z,99676.06
2023-01-15T01:50:14.826Z,99675.72
2023-01-15T01:52:46.905Z,99685.34
2023-01-15T01:55:16.410Z,99686.41
2023-01-15T01:57:44.593Z,99678.69
2023-01-15T02:00:13.413Z,99679.97
2023-01-15T02:02:44.362Z,99674.59
2023-01-15T02:05:16.041Z,99685.78
2023-01-15T02:07:44.289Z,99688.50
2023-01-15T02:10:15.425Z,99684.38
2023-01-15T02:12:47.006Z,99677.56
2023-01-15T02:15:25.527Z,99671.97
2023-01-15T02:18:00.992Z,99669.78
2023-01-15T02:20:35.542Z,99676.63
2023-01-15T02:23:16.445Z,99664.75
2023-01-15T02:26:02.284Z,99671.44
2023-01-15T02:28:35.183Z,99673.59
2023-01-15T02:31:09.881Z,99665.09
2023-01-15T02:33:43.102Z,99662.34
2023-01-15T02:36:18.537Z,99665.84
2023-01-15T02:38:53.427Z,99669.44
2023-01-15T02:41:26.541Z,99665.00
2023-01-15T02:43:59.573Z,99676.25
2023-01-15T02:46:31.952Z,99662.50
2023-01-15T02:49:03.849Z,99655.94
2023-01-15T02:51:43.763Z,99658.06
2023-01-15T02:54:15.777Z,99655.25
2023-01-15T02:56:55.814Z,99648.25
2023-01-15T02:59:29.543Z,99652.59
2023-01-15T03:02:00.783Z,99653.56
2023-01-15T03:04:34.624Z,99657.00
2023-01-15T03:07:06.816Z,99654.97
2023-01-15T03:09:39.016Z,99648.66
2023-01-15T03:12:14.619Z,99648.22
2023-01-15T03:14:52.012Z,99650.63
2023-01-15T03:17:26.549Z,99653.94
2023-01-15T03:19:59.452Z,99651.09
2023-01-15T03:22:30.543Z,99661.66
2023-01-15T03:25:02.983Z,99647.88
2023-01-15T03:27:34.064Z,99644.81
2023-01-15T03:30:07.105Z,99650.53
2023-01-15T03:32:35.849Z,99645.03
2023-01-15T03:35:06.712Z,99650.53
2023-01-15T03:37:38.800Z,99645.13
2023-01-15T03:40:07.218Z,99646.41
2023-01-15T03:42:50.231Z,99654.66
2023-01-15T03:45:26.153Z,99642.53
2023-01-15T03:48:01.816Z,99654.16
2023-01-15T03:50:36.092Z,99653.09
2023-01-15T03:53:11.392Z,99641.91
2023-01-15T03:55:52.330Z,99641.28
2023-01-15T03:58:21.905Z,99643.59
2023-01-15T04:00:55.130Z,99634.66
2023-01-15T04:03:25.054Z,99630.72
2023-01-15T04:05:55.135Z,99627.84
2023-01-15T04:08:26.737Z,99630.31
2023-01-15T04:10:57.143Z,99633.56
2023-01-15T04:16:25.541Z,99630.13
2023-01-15T04:18:52.534Z,99622.06
2023-01-15T04:21:19.468Z,99631.06
2023-01-15T04:23:46.224Z,99622.91
2023-01-15T04:26:13.365Z,99620.91
2023-01-15T04:28:40.173Z,99617.84
2023-01-15T04:31:07.470Z,99624.50
2023-01-15T04:33:38.282Z,99622.56
2023-01-15T04:36:06.138Z,99621.44
2023-01-15T04:38:33.136Z,99618.69
2023-01-15T04:41:03.749Z,99615.94
2023-01-15T04:43:30.623Z,99619.44
2023-01-15T04:45:57.477Z,99610.31
2023-01-15T04:48:24.697Z,99607.19
2023-01-15T04:50:57.102Z,99604.34
2023-01-15T04:53:25.719Z,99596.53
2023-01-15T04:55:52.766Z,99600.88
2023-01-15T04:58:19.898Z,99591.47
2023-01-15T05:00:46.991Z,99598.19
2023-01-15T05:03:13.923Z,99584.16
2023-01-15T05:05:41.878Z,99590.81
2023-01-15T05:08:10.331Z,99583.88
2023-01-15T05:10:37.185Z,99585.88
2023-01-15T05:13:03.978Z,99583.69
2023-01-15T05:15:30.774Z,99586.34
2023-01-15T05:17:57.535Z,99586.75
2023-01-15T05:20:24.357Z,99588.13
2023-01-15T05:22:51.243Z,99574.97
2023-01-15T05:25:19.324Z,99582.31
2023-01-15T05:27:45.998Z,99582.13
2023-01-15T05:30:13.364Z,99591.31
2023-01-15T05:32:40.266Z,99583.63
2023-01-15T05:35:07.947Z,99576.56
2023-01-15T05:37:34.774Z,99578.34
2023-01-15T05:40:01.704Z,99563.66
2023-01-15T05:42:29.856Z,99569.31
2023-01-15T05:44:56.589Z,99562.75
2023-01-15T05:47:24.155Z,99559.06
2023-01-15T05:49:50.921Z,99557.59
2023-01-15T05:52:25.772Z,99574.97
2023-01-15T05:54:52.627Z,99576.03
2023-01-15T05:57:19.697Z,99568.13
2023-01-15T05:59:47.958Z,99571.41
2023-01-15T06:02:14.966Z,99571.09
2023-01-15T06:04:42.294Z,99576.38
2023-01-15T06:07:09.028Z,99580.78
2023-01-15T06:09:36.147Z,99585.66
2023-01-15T06:12:03.023Z,99565.19
2023-01-15T06:14:29.830Z,99557.16
2023-01-15T06:16:58.064Z,99563.38
2023-01-15T06:19:25.044Z,99567.16
2023-01-15T06:21:51.955Z,99568.75
2023-01-15T06:24:18.759Z,99555.59
2023-01-15T06:26:45.892Z,99557.28
2023-01-15T06:29:12.911Z,99560.22
2023-01-15T06:31:39.864Z,99572.34
2023-01-15T06:34:08.996Z,99569.06
2023-01-15T06:36:35.965Z,99582.47
2023-01-15T06:39:05.159Z,99571.72
2023-01-15T06:41:32.287Z,99577.31
2023-01-15T06:43:59.202Z,99571.09
2023-01-15T06:46:26.085Z,99564.75
2023-01-15T06:48:54.579Z,99554.63
2023-01-15T06:51:22.812Z,99553.56
2023-01-15T06:53:53.470Z,99545.44
2023-01-15T06:56:20.374Z,99545.03
2023-01-15T06:58:47.266Z,99540.28
2023-01-15T07:01:16.578Z,99542.59
2023-01-15T07:03:44.543Z,99554.94
2023-01-15T07:06:13.135Z,99563.91
2023-01-15T07:08:41.636Z,99552.53
2023-01-15T07:11:10.369Z,99545.47
2023-01-15T07:13:37.522Z,99553.56
2023-01-15T07:16:06.184Z,99563.19
2023-01-15T07:18:35.104Z,99565.91
2023-01-15T07:21:02.092Z,99556.84
2023-01-15T07:23:29.212Z,99547.34
2023-01-15T07:25:59.118Z,99541.91
2023-01-15T07:28:25.949Z,99541.50
2023-01-15T07:30:53.041Z,99543.81
2023-01-15T07:33:20.080Z,99534.66
2023-01-15T07:35:46.821Z,99538.75
2023-01-15T07:38:13.661Z,99529.81
2023-01-15T07:40:40.460Z,99514.00
2023-01-15T07:43:09.097Z,99531.56
2023-01-15T07:45:39.098Z,99534.16
2023-01-15T07:48:10.753Z,99528.69
2023-01-15T07:50:37.887Z,99527.53
2023-01-15T07:53:04.660Z,99535.44
2023-01-15T07:55:31.695Z,99532.72
2023-01-15T07:57:58.439Z,99524.69
2023-01-15T08:00:26.856Z,99516.78
2023-01-15T08:02:53.666Z,99530.81
2023-01-15T08:05:20.818Z,99514.28
2023-01-15T08:07:47.835Z,99528.69
2023-01-15T08:10:14.731Z,99526.38
2023-01-15T08:12:42.105Z,99519.22
2023-01-15T08:15:10.152Z,99526.38
2023-01-15T08:17:39.430Z,99520.25
2023-01-15T08:20:09.011Z,99524.47
2023-01-15T08:22:35.773Z,99526.38
2023-01-15T08:25:02.647Z,99532.72
2023-01-15T08:27:29.544Z,99537.34
2023-01-15T08:29:56.628Z,99540.69
2023-01-15T08:32:23.679Z,99548.59
2023-01-15T08:34:51.946Z,99549.75
2023-01-15T08:37:18.786Z,99548.72
2023-01-15T08:39:45.744Z,99543.53
2023-01-15T08:42:12.454Z,99535.81
2023-01-15T08:44:39.207Z,99533.03
2023-01-15T08:47:06.043Z,99547.19
2023-01-15T08:49:32.818Z,99539.56
2023-01-15T08:52:01.139Z,99542.84
2023-01-15T08:54:28.187Z,99534.47
2023-01-15T08:56:55.098Z,99525.44
2023-01-15T08:59:21.891Z,99526.41
2023-01-15T09:01:48.904Z,99527.25
2023-01-15T09:04:17.217Z,99526.88
2023-01-15T09:06:44.690Z,99515.41
2023-01-15T09:09:13.508Z,99501.84
2023-01-15T09:11:42.379Z,99522.91
2023-01-15T09:14:56.684Z,99524.03
2023-01-15T09:16:57.192Z,99516.31
2023-01-15T09:19:24.584Z,99521.28
2023-01-15T09:21:51.524Z,99518.03
2023-01-15T09:24:22.018Z,99522.75
2023-01-15T09:26:48.958Z,99520.84
2023-01-15T09:29:15.899Z,99520.38
2023-01-15T09:31:42.751Z,99521.19
2023-01-15T09:34:09.833Z,99527.59
2023-01-15T09:36:36.664Z,99517.00
2023-01-15T09:39:04.761Z,99520.84
2023-01-15T09:41:45.183Z,99498.38
2023-01-15T09:44:28.542Z,99500.81
2023-01-15T09:47:08.211Z,99507.69
2023-01-15T09:49:47.687Z,99518.63
2023-01-15T09:52:25.504Z,99519.66
2023-01-15T09:55:03.480Z,99526.25
2023-01-15T09:57:33.254Z,99514.56
2023-01-15T10:00:01.267Z,99521.91
2023-01-15T10:02:32.823Z,99519.16
2023-01-15T10:05:08.145Z,99524.81
2023-01-15T10:07:43.371Z,99516.63
2023-01-15T10:10:14.153Z,99513.50
2023-01-15T10:12:47.497Z,99527.22
2023-01-15T10:15:27.944Z,99522.41
2023-01-15T10:17:57.131Z,99529.03
2023-01-15T10:20:39.869Z,99515.91
2023-01-15T10:23:26.926Z,99502.56
2023-01-15T10:26:02.180Z,99534.66
2023-01-15T10:28:32.594Z,99526.78
2023-01-15T10:31:09.256Z,99519.16
2023-01-15T10:34:00.302Z,99533.72
2023-01-15T10:36:32.436Z,99526.72
2023-01-15T10:39:04.074Z,99493.66
2023-01-15T10:41:52.669Z,99536.44
2023-01-15T10:44:28.888Z,99529.22
2023-01-15T10:47:00.789Z,99522.75
2023-01-15T10:49:29.319Z,99534.06
2023-01-15T10:51:58.397Z,99533.22
2023-01-15T10:54:32.122Z,99540.66
2023-01-15T10:57:08.124Z,99538.50
2023-01-15T10:59:41.145Z,99542.34
2023-01-15T11:02:22.263Z,99538.66
2023-01-15T11:04:49.358Z,99536.22
2023-01-15T11:07:17.078Z,99532.97
2023-01-15T11:09:44.055Z,99513.34
2023-01-15T11:12:20.903Z,99529.78
2023-01-15T11:14:49.110Z,99539.06
2023-01-15T11:17:16.211Z,99538.41
2023-01-15T11:19:43.864Z,99541.13
2023-01-15T11:22:13.553Z,99534.66
2023-01-15T11:24:46.465Z,99531.56
2023-01-15T11:27:16.384Z,99536.63
2023-01-15T11:29:45.006Z,99553.03
2023-01-15T11:32:35.710Z,99539.34
2023-01-15T11:35:13.804Z,99541.31
2023-01-15T11:37:40.934Z,99549.94
2023-01-15T11:40:17.337Z,99547.81
2023-01-15T11:42:46.329Z,99545.78
2023-01-15T11:45:16.929Z,99532.63
2023-01-15T11:47:52.302Z,99545.34
2023-01-15T11:50:20.267Z,99559.44
2023-01-15T11:52:53.229Z,99537.94
2023-01-15T11:55:22.610Z,99546.03
2023-01-15T11:57:51.016Z,99547.03
2023-01-15T12:00:22.417Z,99547.22
2023-01-15T12:02:51.263Z,99544.88
2023-01-15T12:05:22.038Z,99557.22
2023-01-15T12:07:50.979Z,99552.88
2023-01-15T12:10:20.988Z,99540.13
2023-01-15T12:13:00.440Z,99553.28
2023-01-15T12:15:35.929Z,99529.38
2023-01-15T12:18:25.054Z,99546.19
2023-01-15T12:21:03.288Z,99533.94
2023-01-15T12:23:47.939Z,99537.06
2023-01-15T12:26:23.854Z,99551.28
2023-01-15T12:28:58.796Z,99552.44
2023-01-15T12:31:33.325Z,99562.03
2023-01-15T12:34:06.293Z,99561.22
2023-01-15T12:36:41.877Z,99580.03
2023-01-15T12:39:14.449Z,99561.63
2023-01-15T12:41:45.607Z,99584.03
2023-01-15T12:44:14.986Z,99575.59
2023-01-15T12:46:43.933Z,99570.53
2023-01-15T12:49:22.243Z,99587.63
2023-01-15T12:51:57.054Z,99593.81
2023-01-15T12:54:30.860Z,99595.41
2023-01-15T12:57:02.836Z,99608.41
2023-01-15T12:59:35.811Z,99608.44
2023-01-15T13:02:13.017Z,99605.56
2023-01-15T13:04:47.263Z,99607.78
2023-01-15T13:07:23.197Z,99608.63
2023-01-15T13:09:56.356Z,99611.16
2023-01-15T13:12:23.142Z,99614.00
2023-01-15T13:14:49.898Z,99600.38
2023-01-15T13:17:27.482Z,99607.56
2023-01-15T13:20:10.272Z,99616.63
2023-01-15T13:22:46.613Z,99628.34
2023-01-15T13:25:34.689Z,99629.31
2023-01-15T13:28:18.223Z,99622.44
2023-01-15T13:30:55.475Z,99634.81
2023-01-15T13:33:28.022Z,99637.00
2023-01-15T13:36:03.061Z,99632.16
2023-01-15T13:38:40.138Z,99632.88
2023-01-15T13:41:08.659Z,99647.66
2023-01-15T13:43:37.968Z,99643.13
2023-01-15T13:46:08.133Z,99643.13
2023-01-15T13:48:40.768Z,99654.53
2023-01-15T13:51:23.133Z,99649.47
2023-01-15T13:53:51.372Z,99654.72
2023-01-15T13:56:27.396Z,99657.16
2023-01-15T13:58:55.942Z,99661.38
2023-01-15T14:01:26.377Z,99645.00
2023-01-15T14:03:59.182Z,99670.97
2023-01-15T14:06:37.150Z,99673.94
2023-01-15T14:09:06.030Z,99664.13
2023-01-15T14:11:37.139Z,99671.81
2023-01-15T14:14:36.760Z,99685.56
2023-01-15T14:17:20.656Z,99686.91
2023-01-15T14:20:18.023Z,99677.72
2023-01-15T14:23:08.355Z,99691.97
2023-01-15T14:25:55.149Z,99678.06
2023-01-15T14:28:34.114Z,99696.75
2023-01-15T14:31:29.314Z,99708.66
2023-01-15T14:34:11.484Z,99704.75
2023-01-15T14:36:41.339Z,99705.50
2023-01-15T14:39:22.664Z,99708.88
2023-01-15T14:41:58.184Z,99711.94
2023-01-15T14:44:28.754Z,99714.47
2023-01-15T14:47:01.828Z,99717.44
2023-01-15T14:49:30.289Z,99719.41
2023-01-15T14:51:59.103Z,99729.88
2023-01-15T14:54:26.480Z,99732.53
2023-01-15T14:56:57.587Z,99737.81
2023-01-15T14:59:29.233Z,99736.19
2023-01-15T15:02:03.506Z,99733.13
2023-01-15T15:04:35.885Z,99738.22
2023-01-15T15:07:07.694Z,99743.16
2023-01-15T15:09:41.878Z,99738.88
2023-01-15T15:12:27.528Z,99749.75
2023-01-15T15:15:01.532Z,99759.56
2023-01-15T15:17:39.898Z,99759.16
2023-01-15T15:20:30.253Z,99757.22
2023-01-15T15:23:05.117Z,99764.81
2023-01-15T15:25:35.221Z,99767.66
2023-01-15T15:28:05.827Z,99773.38
2023-01-15T15:30:35.617Z,99770.00
2023-01-15T15:33:04.571Z,99770.00
2023-01-15T15:35:34.419Z,99771.16
2023-01-15T15:38:04.599Z,99766.22
2023-01-15T15:40:33.792Z,99765.88
2023-01-15T15:43:12.572Z,99779.06
2023-01-15T15:45:39.308Z,99767.03
2023-01-15T15:48:12.922Z,99770.94
2023-01-15T15:50:40.072Z,99773.06
2023-01-15T15:53:17.262Z,99777.69
2023-01-15T15:55:46.017Z,99776.22
2023-01-15T15:58:24.350Z,99783.19
2023-01-15T16:00:51.481Z,99768.22
2023-01-15T16:03:20.704Z,99779.63
2023-01-15T16:05:59.219Z,99778.44
2023-01-15T16:08:27.397Z,99778.97
2023-01-15T16:10:56.995Z,99783.38
2023-01-15T16:13:28.513Z,99784.19
2023-01-15T16:15:58.395Z,99802.44
2023-01-15T16:18:28.145Z,99800.84
2023-01-15T16:20:56.873Z,99795.69
2023-01-15T16:23:25.163Z,99798.84
2023-01-15T16:25:59.149Z,99802.22
2023-01-15T16:28:33.873Z,99796.22
2023-01-15T16:31:02.226Z,99797.50
2023-01-15T16:33:29.740Z,99799.28
2023-01-15T16:35:57.009Z,99791.38
2023-01-15T16:38:24.700Z,99798.56
2023-01-15T16:40:52.379Z,99791.38
2023-01-15T16:43:22.497Z,99790.66
2023-01-15T16:46:03.244Z,99797.38
2023-01-15T16:48:32.034Z,99797.94
2023-01-15T16:50:58.978Z,99795.09
2023-01-15T16:53:31.890Z,99795.94
2023-01-15T16:55:58.753Z,99812.47
2023-01-15T16:58:37.074Z,99812.47
2023-01-15T17:01:34.662Z,99817.72
2023-01-15T17:04:02.073Z,99821.63
2023-01-15T17:06:29.613Z,99821.72
2023-01-15T17:08:57.151Z,99829.41
2023-01-15T17:11:26.768Z,99827.13
2023-01-15T17:14:08.348Z,99825.88
2023-01-15T17:16:36.573Z,99826.53
2023-01-15T17:19:05.718Z,99823.63
2023-01-15T17:21:32.937Z,99820.78
2023-01-15T17:23:59.832Z,99820.78
2023-01-15T17:26:26.858Z,99831.13
2023-01-15T17:28:53.642Z,99824.16
2023-01-15T17:31:25.557Z,99831.31
2023-01-15T17:33:53.879Z,99833.41
2023-01-15T17:36:21.367Z,99832.31
2023-01-15T17:38:48.565Z,99841.41
2023-01-15T17:41:17.018Z,99838.00
2023-01-15T17:43:43.738Z,99845.72
2023-01-15T17:46:10.664Z,99837.31
2023-01-15T17:48:37.877Z,99840.59
2023-01-15T17:51:09.691Z,99830.97
2023-01-15T17:53:36.429Z,99836.59
2023-01-15T17:56:03.531Z,99824.13
2023-01-15T17:58:30.473Z,99835.72
2023-01-15T18:00:57.421Z,99820.75
2023-01-15T18:03:24.420Z,99832.25
2023-01-15T18:05:51.575Z,99833.78
2023-01-15T18:08:19.885Z,99837.50
2023-01-15T18:10:46.674Z,99837.91
2023-01-15T18:13:13.530Z,99842.13
2023-01-15T18:15:40.389Z,99848.25
2023-01-15T18:35:20.783Z,99836.22
2023-01-15T18:43:25.017Z,99835.78
2023-01-15T19:10:07.770Z,99836.44
2023-01-15T19:15:22.404Z,99832.25
2023-01-15T19:17:49.296Z,99826.56
2023-01-15T19:20:18.432Z,99826.28
2023-01-15T19:22:46.594Z,99821.09
2023-01-15T19:25:13.482Z,99829.78
2023-01-15T19:27:40.461Z,99826.16
2023-01-15T19:30:08.693Z,99825.34
2023-01-15T19:32:35.669Z,99832.41
2023-01-15T19:35:02.467Z,99837.78
2023-01-15T19:37:29.328Z,99828.28
2023-01-15T19:39:57.485Z,99821.41
2023-01-15T19:42:24.366Z,99821.38
2023-01-15T19:44:51.298Z,99827.59
2023-01-15T19:47:24.242Z,99833.06
2023-01-15T19:49:51.886Z,99830.50
2023-01-15T19:52:19.173Z,99838.34
2023-01-15T19:54:46.288Z,99834.75
2023-01-15T19:57:16.995Z,99831.94
2023-01-15T19:59:47.389Z,99826.94
2023-01-15T20:02:14.196Z,99829.03
2023-01-15T20:04:41.051Z,99828.38
2023-01-15T20:07:07.848Z,99831.44
2023-01-15T20:09:34.875Z,99831.72
2023-01-15T20:12:01.757Z,99834.94
2023-01-15T20:14:30.566Z,99837.00
2023-01-15T20:16:57.293Z,99826.19
2023-01-15T20:19:24.064Z,99824.69
2023-01-15T20:21:50.843Z,99812.69
2023-01-15T20:24:17.929Z,99803.47
2023-01-15T20:26:45.145Z,99803.66
2023-01-15T20:29:12.611Z,99811.94
2023-01-15T20:31:40.944Z,99817.28
2023-01-15T20:34:09.326Z,99821.06
2023-01-15T20:36:38.191Z,99801.03
2023-01-15T20:39:05.688Z,99811.75
2023-01-15T20:41:32.770Z,99812.69
2023-01-15T20:44:01.000Z,99813.72
2023-01-15T20:46:27.945Z,99792.78
2023-01-15T20:48:57.535Z,99805.94
2023-01-15T20:51:24.663Z,99804.31
2023-01-15T20:53:51.375Z,99799.91
2023-01-15T20:56:25.780Z,99798.31
2023-01-15T20:59:01.244Z,99800.22
2023-01-15T21:01:36.397Z,99796.72
2023-01-15T21:04:06.125Z,99784.69
2023-01-15T21:06:34.024Z,99782.06
2023-01-15T21:09:04.927Z,99780.94
2023-01-15T21:11:31.683Z,99789.56
2023-01-15T21:13:59.585Z,99795.03
2023-01-15T21:16:27.261Z,99785.63
2023-01-15T21:18:54.085Z,99785.63
2023-01-15T21:21:23.386Z,99779.41
2023-01-15T21:23:50.359Z,99771.63
2023-01-15T21:26:19.350Z,99762.13
2023-01-15T21:31:28.642Z,99762.59
2023-01-15T21:33:56.334Z,99752.91
2023-01-15T21:36:32.400Z,99746.78
2023-01-15T21:38:59.983Z,99746.78
2023-01-15T21:41:28.495Z,99750.19
2023-01-15T21:43:58.819Z,99749.22
2023-01-15T21:46:25.920Z,99743.22
2023-01-15T21:48:54.528Z,99741.44
2023-01-15T21:51:21.499Z,99738.81
2023-01-15T21:53:49.890Z,99742.56
2023-01-15T21:56:17.089Z,99739.84
2023-01-15T21:58:45.320Z,99733.72
2023-01-15T22:01:14.803Z,99737.22
2023-01-15T22:03:41.819Z,99735.59
2023-01-15T22:06:09.876Z,99730.34
2023-01-15T22:08:36.795Z,99726.97
2023-01-15T22:11:07.986Z,99721.69
2023-01-15T22:13:35.280Z,99723.94
2023-01-15T22:16:02.390Z,99717.41
2023-01-15T22:18:29.143Z,99709.50
2023-01-15T22:20:57.011Z,99723.47
2023-01-15T22:23:23.790Z,99718.31
2023-01-15T22:25:50.667Z,99713.81
2023-01-15T22:28:18.734Z,99714.56
2023-01-15T22:30:45.621Z,99711.94
2023-01-15T22:33:12.483Z,99710.03
2023-01-15T22:35:39.797Z,99704.13
2023-01-15T22:38:06.570Z,99709.66
2023-01-15T22:40:33.465Z,99711.34
2023-01-15T22:43:00.940Z,99697.34
2023-01-15T22:45:29.346Z,99700.09
2023-01-15T22:47:56.433Z,99690.50
2023-01-15T22:50:23.283Z,99686.28
2023-01-15T22:52:50.086Z,99664.09
2023-01-15T22:55:16.906Z,99663.78
2023-01-15T22:57:43.733Z,99659.50
2023-01-15T23:00:11.824Z,99670.75
2023-01-15T23:02:51.394Z,99664.56
2023-01-15T23:05:18.273Z,99660.50
2023-01-15T23:07:47.581Z,99641.81
2023-01-15T23:10:15.039Z,99646.53
2023-01-15T23:12:42.656Z,99647.53
2023-01-15T23:15:11.663Z,99639.97
2023-01-15T23:17:40.076Z,99639.13
2023-01-15T23:20:09.668Z,99634.50
2023-01-15T23:22:36.608Z,99639.63
2023-01-15T23:25:03.614Z,99631.53
2023-01-15T23:27:30.489Z,99627.78
2023-01-15T23:29:57.432Z,99618.69
2023-01-15T23:32:24.251Z,99620.91
2023-01-15T23:34:52.428Z,99618.38
2023-01-15T23:37:19.305Z,99614.06
2023-01-15T23:39:46.085Z,99607.47
2023-01-15T23:42:12.820Z,99605.03
2023-01-15T23:44:39.681Z,99592.09
2023-01-15T23:47:07.520Z,99588.97
2023-01-15T23:49:34.849Z,99575.56
2023-01-15T23:52:04.352Z,99577.72
2023-01-15T23:54:31.110Z,99572.53
2023-01-15T23:56:59.724Z,99570.09
2023-01-15T23:59:26.953Z,99569.59
